sensor_id;sensor_type;location;lat;lon;timestamp;P1;durP1;ratioP1;P2;durP2;ratioP2
43857;SDS011;29507;51.284;5.758;2023-02-03T00:01:16;13.60;;;5.38;;
43857;SDS011;29507;51.284;5.758;2023-02-03T00:03:42;13.27;;;5.75;;
43857;SDS011;29507;51.284;5.758;2023-02-03T00:06:08;14.75;;;5.88;;
43857;SDS011;29507;51.284;5.758;2023-02-03T00:08:34;12.45;;;5.75;;
43857;SDS011;29507;51.284;5.758;2023-02-03T00:11:01;14.13;;;6.38;;
43857;SDS011;29507;51.284;5.758;2023-02-03T00:13:27;16.35;;;5.55;;
43857;SDS011;29507;51.284;5.758;2023-02-03T00:15:53;11.82;;;5.15;;
43857;SDS011;29507;51.284;5.758;2023-02-03T00:18:19;12.23;;;4.78;;
43857;SDS011;29507;51.284;5.758;2023-02-03T00:20:44;10.52;;;5.32;;
43857;SDS011;29507;51.284;5.758;2023-02-03T00:23:10;9.75;;;4.28;;
43857;SDS011;29507;51.284;5.758;2023-02-03T00:25:36;9.70;;;4.65;;
43857;SDS011;29507;51.284;5.758;2023-02-03T00:28:03;17.23;;;4.60;;
43857;SDS011;29507;51.284;5.758;2023-02-03T00:30:29;15.82;;;4.95;;
43857;SDS011;29507;51.284;5.758;2023-02-03T00:32:55;9.02;;;4.10;;
43857;SDS011;29507;51.284;5.758;2023-02-03T00:35:21;12.85;;;3.80;;
43857;SDS011;29507;51.284;5.758;2023-02-03T00:37:53;10.38;;;3.92;;
43857;SDS011;29507;51.284;5.758;2023-02-03T00:40:21;8.07;;;3.80;;
43857;SDS011;29507;51.284;5.758;2023-02-03T00:42:49;10.15;;;4.95;;
43857;SDS011;29507;51.284;5.758;2023-02-03T00:45:15;7.78;;;3.95;;
43857;SDS011;29507;51.284;5.758;2023-02-03T00:47:41;8.25;;;3.92;;
43857;SDS011;29507;51.284;5.758;2023-02-03T00:50:07;9.77;;;4.07;;
43857;SDS011;29507;51.284;5.758;2023-02-03T00:52:33;9.95;;;3.60;;
43857;SDS011;29507;51.284;5.758;2023-02-03T00:54:59;15.65;;;3.67;;
43857;SDS011;29507;51.284;5.758;2023-02-03T00:57:24;10.75;;;3.63;;
43857;SDS011;29507;51.284;5.758;2023-02-03T00:59:50;9.50;;;4.28;;
43857;SDS011;29507;51.284;5.758;2023-02-03T01:02:18;10.07;;;3.05;;
43857;SDS011;29507;51.284;5.758;2023-02-03T01:04:44;15.13;;;4.45;;
43857;SDS011;29507;51.284;5.758;2023-02-03T01:07:10;14.07;;;3.08;;
43857;SDS011;29507;51.284;5.758;2023-02-03T01:09:36;12.30;;;3.55;;
43857;SDS011;29507;51.284;5.758;2023-02-03T01:12:02;11.88;;;3.03;;
43857;SDS011;29507;51.284;5.758;2023-02-03T01:14:29;8.13;;;2.65;;
43857;SDS011;29507;51.284;5.758;2023-02-03T01:16:54;10.13;;;3.22;;
43857;SDS011;29507;51.284;5.758;2023-02-03T01:19:20;11.75;;;2.65;;
43857;SDS011;29507;51.284;5.758;2023-02-03T01:21:46;12.05;;;2.80;;
43857;SDS011;29507;51.284;5.758;2023-02-03T01:24:12;11.65;;;3.05;;
43857;SDS011;29507;51.284;5.758;2023-02-03T01:26:39;9.20;;;2.47;;
43857;SDS011;29507;51.284;5.758;2023-02-03T01:29:05;6.68;;;1.90;;
43857;SDS011;29507;51.284;5.758;2023-02-03T01:31:32;7.57;;;2.67;;
43857;SDS011;29507;51.284;5.758;2023-02-03T01:34:01;9.25;;;2.17;;
43857;SDS011;29507;51.284;5.758;2023-02-03T01:36:27;7.07;;;2.10;;
43857;SDS011;29507;51.284;5.758;2023-02-03T01:38:54;5.70;;;2.03;;
43857;SDS011;29507;51.284;5.758;2023-02-03T01:41:21;6.05;;;1.80;;
43857;SDS011;29507;51.284;5.758;2023-02-03T01:43:53;10.73;;;2.95;;
43857;SDS011;29507;51.284;5.758;2023-02-03T01:46:34;10.48;;;2.15;;
43857;SDS011;29507;51.284;5.758;2023-02-03T01:49:09;5.70;;;1.88;;
43857;SDS011;29507;51.284;5.758;2023-02-03T01:51:42;6.25;;;2.58;;
43857;SDS011;29507;51.284;5.758;2023-02-03T01:54:11;5.72;;;1.67;;
43857;SDS011;29507;51.284;5.758;2023-02-03T01:56:44;6.28;;;2.38;;
43857;SDS011;29507;51.284;5.758;2023-02-03T01:59:15;10.45;;;3.15;;
43857;SDS011;29507;51.284;5.758;2023-02-03T02:01:42;7.10;;;1.88;;
43857;SDS011;29507;51.284;5.758;2023-02-03T02:04:09;5.82;;;2.50;;
43857;SDS011;29507;51.284;5.758;2023-02-03T02:06:35;5.22;;;2.10;;
43857;SDS011;29507;51.284;5.758;2023-02-03T02:09:01;8.40;;;3.20;;
43857;SDS011;29507;51.284;5.758;2023-02-03T02:11:27;5.40;;;2.08;;
43857;SDS011;29507;51.284;5.758;2023-02-03T02:13:54;7.63;;;2.78;;
43857;SDS011;29507;51.284;5.758;2023-02-03T02:16:30;7.03;;;2.40;;
43857;SDS011;29507;51.284;5.758;2023-02-03T02:33:30;7.38;;;2.70;;
43857;SDS011;29507;51.284;5.758;2023-02-03T02:36:23;8.88;;;2.88;;
43857;SDS011;29507;51.284;5.758;2023-02-03T02:39:22;6.20;;;3.08;;
43857;SDS011;29507;51.284;5.758;2023-02-03T02:42:07;15.38;;;2.83;;
43857;SDS011;29507;51.284;5.758;2023-02-03T02:44:42;8.52;;;2.67;;
43857;SDS011;29507;51.284;5.758;2023-02-03T02:47:30;8.07;;;2.65;;
43857;SDS011;29507;51.284;5.758;2023-02-03T02:50:00;8.27;;;2.67;;
43857;SDS011;29507;51.284;5.758;2023-02-03T02:52:31;6.53;;;2.38;;
43857;SDS011;29507;51.284;5.758;2023-02-03T02:55:02;9.48;;;2.30;;
43857;SDS011;29507;51.284;5.758;2023-02-03T02:57:34;5.70;;;2.55;;
43857;SDS011;29507;51.284;5.758;2023-02-03T03:00:02;9.75;;;2.47;;
43857;SDS011;29507;51.284;5.758;2023-02-03T03:02:32;8.63;;;2.60;;
43857;SDS011;29507;51.284;5.758;2023-02-03T03:04:59;3.78;;;2.22;;
43857;SDS011;29507;51.284;5.758;2023-02-03T03:07:29;6.40;;;2.53;;
43857;SDS011;29507;51.284;5.758;2023-02-03T03:10:04;5.55;;;2.38;;
43857;SDS011;29507;51.284;5.758;2023-02-03T03:12:36;8.40;;;2.38;;
43857;SDS011;29507;51.284;5.758;2023-02-03T03:15:17;11.13;;;2.22;;
43857;SDS011;29507;51.284;5.758;2023-02-03T03:17:48;5.40;;;2.33;;
43857;SDS011;29507;51.284;5.758;2023-02-03T03:20:27;6.35;;;2.25;;
43857;SDS011;29507;51.284;5.758;2023-02-03T03:22:56;4.90;;;2.10;;
43857;SDS011;29507;51.284;5.758;2023-02-03T03:25:48;9.50;;;2.20;;
43857;SDS011;29507;51.284;5.758;2023-02-03T03:28:20;9.48;;;2.20;;
43857;SDS011;29507;51.284;5.758;2023-02-03T03:30:52;6.22;;;2.13;;
43857;SDS011;29507;51.284;5.758;2023-02-03T03:33:18;6.35;;;2.58;;
43857;SDS011;29507;51.284;5.758;2023-02-03T03:35:47;6.55;;;1.48;;
43857;SDS011;29507;51.284;5.758;2023-02-03T03:38:18;11.93;;;2.17;;
43857;SDS011;29507;51.284;5.758;2023-02-03T03:40:50;8.55;;;1.88;;
43857;SDS011;29507;51.284;5.758;2023-02-03T03:43:27;5.97;;;2.03;;
43857;SDS011;29507;51.284;5.758;2023-02-03T03:46:07;7.05;;;1.90;;
43857;SDS011;29507;51.284;5.758;2023-02-03T03:48:50;6.10;;;2.00;;
43857;SDS011;29507;51.284;5.758;2023-02-03T03:51:42;6.57;;;2.08;;
43857;SDS011;29507;51.284;5.758;2023-02-03T03:54:35;7.63;;;2.53;;
43857;SDS011;29507;51.284;5.758;2023-02-03T03:57:05;3.22;;;1.10;;
43857;SDS011;29507;51.284;5.758;2023-02-03T03:59:39;7.55;;;1.52;;
43857;SDS011;29507;51.284;5.758;2023-02-03T04:02:06;5.55;;;1.58;;
43857;SDS011;29507;51.284;5.758;2023-02-03T04:04:33;5.47;;;1.75;;
43857;SDS011;29507;51.284;5.758;2023-02-03T04:07:02;6.60;;;1.67;;
43857;SDS011;29507;51.284;5.758;2023-02-03T04:09:28;4.93;;;1.60;;
43857;SDS011;29507;51.284;5.758;2023-02-03T04:11:54;9.20;;;1.50;;
43857;SDS011;29507;51.284;5.758;2023-02-03T04:14:26;7.35;;;1.63;;
43857;SDS011;29507;51.284;5.758;2023-02-03T04:16:56;7.07;;;1.50;;
43857;SDS011;29507;51.284;5.758;2023-02-03T04:19:22;10.15;;;2.22;;
43857;SDS011;29507;51.284;5.758;2023-02-03T04:21:47;11.25;;;1.80;;
43857;SDS011;29507;51.284;5.758;2023-02-03T04:24:13;5.95;;;1.42;;
43857;SDS011;29507;51.284;5.758;2023-02-03T04:26:39;4.65;;;1.70;;
43857;SDS011;29507;51.284;5.758;2023-02-03T04:29:05;5.65;;;1.52;;
43857;SDS011;29507;51.284;5.758;2023-02-03T04:31:30;12.93;;;2.15;;
43857;SDS011;29507;51.284;5.758;2023-02-03T04:33:56;5.40;;;1.30;;
43857;SDS011;29507;51.284;5.758;2023-02-03T04:36:22;3.85;;;1.52;;
43857;SDS011;29507;51.284;5.758;2023-02-03T04:38:48;7.00;;;1.38;;
43857;SDS011;29507;51.284;5.758;2023-02-03T04:41:14;4.15;;;1.70;;
43857;SDS011;29507;51.284;5.758;2023-02-03T04:43:39;5.45;;;1.65;;
43857;SDS011;29507;51.284;5.758;2023-02-03T04:46:05;3.25;;;1.20;;
43857;SDS011;29507;51.284;5.758;2023-02-03T04:48:31;9.25;;;1.73;;
43857;SDS011;29507;51.284;5.758;2023-02-03T04:51:03;6.85;;;2.22;;
43857;SDS011;29507;51.284;5.758;2023-02-03T04:53:30;7.45;;;1.50;;
43857;SDS011;29507;51.284;5.758;2023-02-03T04:55:57;5.07;;;1.30;;
43857;SDS011;29507;51.284;5.758;2023-02-03T04:58:22;5.63;;;1.67;;
43857;SDS011;29507;51.284;5.758;2023-02-03T05:00:48;6.00;;;1.30;;
43857;SDS011;29507;51.284;5.758;2023-02-03T05:03:14;5.88;;;1.50;;
43857;SDS011;29507;51.284;5.758;2023-02-03T05:05:39;3.80;;;1.40;;
43857;SDS011;29507;51.284;5.758;2023-02-03T05:08:05;7.68;;;1.52;;
43857;SDS011;29507;51.284;5.758;2023-02-03T05:10:31;6.45;;;1.17;;
43857;SDS011;29507;51.284;5.758;2023-02-03T05:12:57;4.95;;;1.17;;
43857;SDS011;29507;51.284;5.758;2023-02-03T05:15:22;5.28;;;1.30;;
43857;SDS011;29507;51.284;5.758;2023-02-03T05:17:50;4.13;;;1.13;;
43857;SDS011;29507;51.284;5.758;2023-02-03T05:20:16;7.50;;;1.20;;
43857;SDS011;29507;51.284;5.758;2023-02-03T05:22:42;4.30;;;2.05;;
43857;SDS011;29507;51.284;5.758;2023-02-03T05:25:08;12.18;;;1.92;;
43857;SDS011;29507;51.284;5.758;2023-02-03T05:27:34;5.15;;;1.33;;
43857;SDS011;29507;51.284;5.758;2023-02-03T05:30:02;4.40;;;1.23;;
43857;SDS011;29507;51.284;5.758;2023-02-03T05:32:28;8.80;;;2.03;;
43857;SDS011;29507;51.284;5.758;2023-02-03T05:34:54;8.45;;;1.70;;
43857;SDS011;29507;51.284;5.758;2023-02-03T05:37:19;5.15;;;1.33;;
43857;SDS011;29507;51.284;5.758;2023-02-03T05:39:45;3.90;;;1.02;;
43857;SDS011;29507;51.284;5.758;2023-02-03T05:42:11;7.20;;;1.55;;
43857;SDS011;29507;51.284;5.758;2023-02-03T05:44:36;8.48;;;1.60;;
43857;SDS011;29507;51.284;5.758;2023-02-03T05:47:02;3.80;;;1.30;;
43857;SDS011;29507;51.284;5.758;2023-02-03T05:49:28;7.20;;;1.85;;
43857;SDS011;29507;51.284;5.758;2023-02-03T05:51:54;5.88;;;1.30;;
43857;SDS011;29507;51.284;5.758;2023-02-03T05:54:20;8.45;;;1.98;;
43857;SDS011;29507;51.284;5.758;2023-02-03T05:56:46;6.20;;;1.50;;
43857;SDS011;29507;51.284;5.758;2023-02-03T05:59:12;8.02;;;1.50;;
43857;SDS011;29507;51.284;5.758;2023-02-03T06:01:37;9.38;;;1.55;;
43857;SDS011;29507;51.284;5.758;2023-02-03T06:04:03;5.97;;;1.98;;
43857;SDS011;29507;51.284;5.758;2023-02-03T06:06:29;4.93;;;1.00;;
43857;SDS011;29507;51.284;5.758;2023-02-03T06:09:01;6.05;;;1.65;;
43857;SDS011;29507;51.284;5.758;2023-02-03T06:11:29;6.32;;;1.50;;
43857;SDS011;29507;51.284;5.758;2023-02-03T06:13:55;5.68;;;1.25;;
43857;SDS011;29507;51.284;5.758;2023-02-03T06:16:22;11.50;;;1.50;;
43857;SDS011;29507;51.284;5.758;2023-02-03T06:18:52;8.15;;;1.35;;
43857;SDS011;29507;51.284;5.758;2023-02-03T06:21:19;4.32;;;1.40;;
43857;SDS011;29507;51.284;5.758;2023-02-03T06:23:45;6.70;;;1.45;;
43857;SDS011;29507;51.284;5.758;2023-02-03T06:26:11;6.03;;;1.17;;
43857;SDS011;29507;51.284;5.758;2023-02-03T06:28:37;8.40;;;1.48;;
43857;SDS011;29507;51.284;5.758;2023-02-03T06:31:03;7.68;;;1.40;;
43857;SDS011;29507;51.284;5.758;2023-02-03T06:33:30;4.32;;;1.50;;
43857;SDS011;29507;51.284;5.758;2023-02-03T06:35:55;6.40;;;0.90;;
43857;SDS011;29507;51.284;5.758;2023-02-03T06:38:21;7.57;;;1.65;;
43857;SDS011;29507;51.284;5.758;2023-02-03T06:40:47;6.10;;;1.02;;
43857;SDS011;29507;51.284;5.758;2023-02-03T06:43:13;7.22;;;1.50;;
43857;SDS011;29507;51.284;5.758;2023-02-03T06:45:39;8.32;;;1.63;;
43857;SDS011;29507;51.284;5.758;2023-02-03T06:48:05;6.95;;;1.73;;
43857;SDS011;29507;51.284;5.758;2023-02-03T06:50:31;5.07;;;1.17;;
43857;SDS011;29507;51.284;5.758;2023-02-03T06:52:57;6.47;;;1.08;;
43857;SDS011;29507;51.284;5.758;2023-02-03T06:55:23;7.05;;;1.90;;
43857;SDS011;29507;51.284;5.758;2023-02-03T06:57:48;7.85;;;1.83;;
43857;SDS011;29507;51.284;5.758;2023-02-03T07:00:15;4.65;;;0.75;;
43857;SDS011;29507;51.284;5.758;2023-02-03T07:02:42;7.78;;;1.40;;
43857;SDS011;29507;51.284;5.758;2023-02-03T07:05:08;12.48;;;1.67;;
43857;SDS011;29507;51.284;5.758;2023-02-03T07:07:34;6.88;;;1.63;;
43857;SDS011;29507;51.284;5.758;2023-02-03T07:10:02;3.50;;;1.30;;
43857;SDS011;29507;51.284;5.758;2023-02-03T07:12:29;10.52;;;1.77;;
43857;SDS011;29507;51.284;5.758;2023-02-03T07:14:55;8.52;;;1.67;;
43857;SDS011;29507;51.284;5.758;2023-02-03T07:17:21;8.73;;;1.20;;
43857;SDS011;29507;51.284;5.758;2023-02-03T07:19:47;6.15;;;1.15;;
43857;SDS011;29507;51.284;5.758;2023-02-03T07:22:12;5.68;;;1.65;;
43857;SDS011;29507;51.284;5.758;2023-02-03T07:24:38;7.43;;;1.05;;
43857;SDS011;29507;51.284;5.758;2023-02-03T07:27:04;3.67;;;1.40;;
43857;SDS011;29507;51.284;5.758;2023-02-03T07:29:29;8.50;;;1.48;;
43857;SDS011;29507;51.284;5.758;2023-02-03T07:31:55;6.25;;;1.27;;
43857;SDS011;29507;51.284;5.758;2023-02-03T07:34:21;6.18;;;1.40;;
43857;SDS011;29507;51.284;5.758;2023-02-03T07:36:46;6.57;;;1.35;;
43857;SDS011;29507;51.284;5.758;2023-02-03T07:39:12;4.82;;;1.23;;
43857;SDS011;29507;51.284;5.758;2023-02-03T07:41:38;8.60;;;1.90;;
43857;SDS011;29507;51.284;5.758;2023-02-03T07:44:04;4.97;;;1.58;;
43857;SDS011;29507;51.284;5.758;2023-02-03T07:46:30;4.00;;;1.10;;
43857;SDS011;29507;51.284;5.758;2023-02-03T07:48:55;5.45;;;1.65;;
43857;SDS011;29507;51.284;5.758;2023-02-03T07:51:21;8.23;;;1.48;;
43857;SDS011;29507;51.284;5.758;2023-02-03T07:53:47;4.70;;;0.85;;
43857;SDS011;29507;51.284;5.758;2023-02-03T07:56:13;4.43;;;1.10;;
43857;SDS011;29507;51.284;5.758;2023-02-03T07:58:38;5.90;;;1.60;;
43857;SDS011;29507;51.284;5.758;2023-02-03T08:01:11;5.20;;;1.40;;
43857;SDS011;29507;51.284;5.758;2023-02-03T08:03:39;4.65;;;1.20;;
43857;SDS011;29507;51.284;5.758;2023-02-03T08:06:05;5.53;;;1.45;;
43857;SDS011;29507;51.284;5.758;2023-02-03T08:08:31;2.67;;;1.15;;
43857;SDS011;29507;51.284;5.758;2023-02-03T08:10:57;6.65;;;1.83;;
43857;SDS011;29507;51.284;5.758;2023-02-03T08:13:23;7.82;;;1.80;;
43857;SDS011;29507;51.284;5.758;2023-02-03T08:15:49;4.88;;;1.25;;
43857;SDS011;29507;51.284;5.758;2023-02-03T08:18:14;4.65;;;1.73;;
43857;SDS011;29507;51.284;5.758;2023-02-03T08:20:40;6.38;;;1.45;;
43857;SDS011;29507;51.284;5.758;2023-02-03T08:23:06;5.53;;;1.35;;
43857;SDS011;29507;51.284;5.758;2023-02-03T08:25:32;8.57;;;1.45;;
43857;SDS011;29507;51.284;5.758;2023-02-03T08:27:57;4.97;;;1.65;;
43857;SDS011;29507;51.284;5.758;2023-02-03T08:30:23;5.70;;;1.58;;
43857;SDS011;29507;51.284;5.758;2023-02-03T08:32:49;10.50;;;1.30;;
43857;SDS011;29507;51.284;5.758;2023-02-03T08:35:15;3.00;;;1.02;;
43857;SDS011;29507;51.284;5.758;2023-02-03T08:37:41;4.07;;;1.27;;
43857;SDS011;29507;51.284;5.758;2023-02-03T08:40:08;6.05;;;1.13;;
43857;SDS011;29507;51.284;5.758;2023-02-03T08:42:34;4.70;;;1.20;;
43857;SDS011;29507;51.284;5.758;2023-02-03T08:45:00;4.55;;;1.55;;
43857;SDS011;29507;51.284;5.758;2023-02-03T08:47:25;4.95;;;1.67;;
43857;SDS011;29507;51.284;5.758;2023-02-03T08:49:51;3.25;;;1.15;;
43857;SDS011;29507;51.284;5.758;2023-02-03T08:52:17;6.47;;;1.33;;
43857;SDS011;29507;51.284;5.758;2023-02-03T08:54:43;9.43;;;1.70;;
43857;SDS011;29507;51.284;5.758;2023-02-03T08:57:09;5.45;;;1.60;;
43857;SDS011;29507;51.284;5.758;2023-02-03T08:59:38;8.40;;;1.52;;
43857;SDS011;29507;51.284;5.758;2023-02-03T09:02:07;4.93;;;1.75;;
43857;SDS011;29507;51.284;5.758;2023-02-03T09:04:35;6.00;;;1.55;;
43857;SDS011;29507;51.284;5.758;2023-02-03T09:07:01;9.43;;;1.77;;
43857;SDS011;29507;51.284;5.758;2023-02-03T09:09:28;6.47;;;1.50;;
43857;SDS011;29507;51.284;5.758;2023-02-03T09:11:54;3.70;;;1.60;;
43857;SDS011;29507;51.284;5.758;2023-02-03T09:14:25;5.45;;;1.80;;
43857;SDS011;29507;51.284;5.758;2023-02-03T09:16:52;5.53;;;1.67;;
43857;SDS011;29507;51.284;5.758;2023-02-03T09:19:18;9.20;;;2.05;;
43857;SDS011;29507;51.284;5.758;2023-02-03T09:21:44;5.00;;;1.83;;
43857;SDS011;29507;51.284;5.758;2023-02-03T09:24:11;3.63;;;1.85;;
43857;SDS011;29507;51.284;5.758;2023-02-03T09:26:37;6.13;;;2.13;;
43857;SDS011;29507;51.284;5.758;2023-02-03T09:29:03;6.88;;;2.15;;
43857;SDS011;29507;51.284;5.758;2023-02-03T09:31:29;2.65;;;1.52;;
43857;SDS011;29507;51.284;5.758;2023-02-03T09:33:54;7.18;;;2.15;;
43857;SDS011;29507;51.284;5.758;2023-02-03T09:36:20;8.30;;;2.50;;
43857;SDS011;29507;51.284;5.758;2023-02-03T09:38:46;8.90;;;2.25;;
43857;SDS011;29507;51.284;5.758;2023-02-03T09:41:14;5.53;;;2.35;;
43857;SDS011;29507;51.284;5.758;2023-02-03T09:46:17;5.03;;;2.60;;
43857;SDS011;29507;51.284;5.758;2023-02-03T09:48:46;6.32;;;2.60;;
43857;SDS011;29507;51.284;5.758;2023-02-03T09:51:18;6.93;;;2.95;;
43857;SDS011;29507;51.284;5.758;2023-02-03T09:54:02;9.80;;;2.33;;
43857;SDS011;29507;51.284;5.758;2023-02-03T09:56:35;5.88;;;1.95;;
43857;SDS011;29507;51.284;5.758;2023-02-03T09:59:01;3.83;;;1.70;;
43857;SDS011;29507;51.284;5.758;2023-02-03T10:01:29;7.72;;;2.67;;
43857;SDS011;29507;51.284;5.758;2023-02-03T10:04:05;5.45;;;2.45;;
43857;SDS011;29507;51.284;5.758;2023-02-03T10:06:52;10.13;;;2.87;;
43857;SDS011;29507;51.284;5.758;2023-02-03T10:17:37;8.63;;;2.15;;
43857;SDS011;29507;51.284;5.758;2023-02-03T10:20:19;5.05;;;1.92;;
43857;SDS011;29507;51.284;5.758;2023-02-03T10:22:51;8.40;;;2.20;;
43857;SDS011;29507;51.284;5.758;2023-02-03T10:27:54;4.77;;;1.70;;
43857;SDS011;29507;51.284;5.758;2023-02-03T10:30:23;5.88;;;2.10;;
43857;SDS011;29507;51.284;5.758;2023-02-03T10:33:16;4.90;;;1.98;;
43857;SDS011;29507;51.284;5.758;2023-02-03T10:38:18;6.50;;;2.05;;
43857;SDS011;29507;51.284;5.758;2023-02-03T10:40:52;10.25;;;1.80;;
43857;SDS011;29507;51.284;5.758;2023-02-03T10:43:17;7.13;;;1.55;;
43857;SDS011;29507;51.284;5.758;2023-02-03T10:46:01;13.73;;;1.80;;
43857;SDS011;29507;51.284;5.758;2023-02-03T10:48:27;9.05;;;1.70;;
43857;SDS011;29507;51.284;5.758;2023-02-03T10:50:53;5.65;;;1.55;;
43857;SDS011;29507;51.284;5.758;2023-02-03T10:53:25;10.32;;;1.83;;
43857;SDS011;29507;51.284;5.758;2023-02-03T10:56:08;3.33;;;0.93;;
43857;SDS011;29507;51.284;5.758;2023-02-03T10:58:37;6.55;;;1.15;;
43857;SDS011;29507;51.284;5.758;2023-02-03T11:01:08;4.75;;;1.05;;
43857;SDS011;29507;51.284;5.758;2023-02-03T11:03:35;5.63;;;1.30;;
43857;SDS011;29507;51.284;5.758;2023-02-03T11:08:45;7.57;;;1.40;;
43857;SDS011;29507;51.284;5.758;2023-02-03T11:11:14;9.18;;;1.70;;
43857;SDS011;29507;51.284;5.758;2023-02-03T11:13:53;5.22;;;1.40;;
43857;SDS011;29507;51.284;5.758;2023-02-03T11:16:20;4.82;;;1.13;;
43857;SDS011;29507;51.284;5.758;2023-02-03T11:21:29;6.82;;;1.85;;
43857;SDS011;29507;51.284;5.758;2023-02-03T11:24:02;6.47;;;2.25;;
43857;SDS011;29507;51.284;5.758;2023-02-03T11:26:31;5.50;;;1.20;;
43857;SDS011;29507;51.284;5.758;2023-02-03T11:29:00;3.75;;;1.20;;
43857;SDS011;29507;51.284;5.758;2023-02-03T11:31:29;9.33;;;1.23;;
43857;SDS011;29507;51.284;5.758;2023-02-03T11:34:05;6.45;;;1.30;;
43857;SDS011;29507;51.284;5.758;2023-02-03T11:36:39;5.22;;;1.10;;
43857;SDS011;29507;51.284;5.758;2023-02-03T11:39:19;9.15;;;1.15;;
43857;SDS011;29507;51.284;5.758;2023-02-03T11:41:50;2.67;;;0.82;;
43857;SDS011;29507;51.284;5.758;2023-02-03T11:44:17;4.43;;;1.20;;
43857;SDS011;29507;51.284;5.758;2023-02-03T11:46:47;3.30;;;1.00;;
43857;SDS011;29507;51.284;5.758;2023-02-03T11:51:55;5.43;;;1.30;;
43857;SDS011;29507;51.284;5.758;2023-02-03T11:54:46;10.73;;;2.08;;
43857;SDS011;29507;51.284;5.758;2023-02-03T11:58:01;4.65;;;1.42;;
43857;SDS011;29507;51.284;5.758;2023-02-03T12:00:28;8.82;;;1.55;;
43857;SDS011;29507;51.284;5.758;2023-02-03T12:08:44;6.78;;;1.48;;
43857;SDS011;29507;51.284;5.758;2023-02-03T12:19:07;6.03;;;1.63;;
43857;SDS011;29507;51.284;5.758;2023-02-03T12:21:39;10.50;;;1.45;;
43857;SDS011;29507;51.284;5.758;2023-02-03T12:24:33;6.85;;;1.20;;
43857;SDS011;29507;51.284;5.758;2023-02-03T12:29:57;4.28;;;1.73;;
43857;SDS011;29507;51.284;5.758;2023-02-03T12:34:54;5.95;;;1.20;;
43857;SDS011;29507;51.284;5.758;2023-02-03T12:38:10;8.27;;;1.00;;
43857;SDS011;29507;51.284;5.758;2023-02-03T12:43:24;8.65;;;1.30;;
43857;SDS011;29507;51.284;5.758;2023-02-03T12:45:55;11.18;;;1.92;;
43857;SDS011;29507;51.284;5.758;2023-02-03T12:48:27;6.40;;;1.95;;
43857;SDS011;29507;51.284;5.758;2023-02-03T12:51:10;3.97;;;1.15;;
43857;SDS011;29507;51.284;5.758;2023-02-03T12:53:51;9.75;;;2.10;;
43857;SDS011;29507;51.284;5.758;2023-02-03T12:56:28;7.57;;;1.38;;
43857;SDS011;29507;51.284;5.758;2023-02-03T12:59:02;7.72;;;1.77;;
43857;SDS011;29507;51.284;5.758;2023-02-03T13:01:56;6.88;;;1.42;;
43857;SDS011;29507;51.284;5.758;2023-02-03T13:07:07;8.50;;;1.20;;
43857;SDS011;29507;51.284;5.758;2023-02-03T13:09:46;6.75;;;1.58;;
43857;SDS011;29507;51.284;5.758;2023-02-03T13:12:38;3.95;;;1.30;;
43857;SDS011;29507;51.284;5.758;2023-02-03T13:17:45;10.85;;;1.55;;
43857;SDS011;29507;51.284;5.758;2023-02-03T13:22:42;6.20;;;1.88;;
43857;SDS011;29507;51.284;5.758;2023-02-03T13:25:14;7.43;;;2.67;;
43857;SDS011;29507;51.284;5.758;2023-02-03T13:28:15;9.45;;;2.20;;
43857;SDS011;29507;51.284;5.758;2023-02-03T13:30:56;7.75;;;1.58;;
43857;SDS011;29507;51.284;5.758;2023-02-03T13:33:45;6.90;;;1.52;;
43857;SDS011;29507;51.284;5.758;2023-02-03T13:42:22;9.25;;;1.38;;
43857;SDS011;29507;51.284;5.758;2023-02-03T13:44:55;4.40;;;1.17;;
43857;SDS011;29507;51.284;5.758;2023-02-03T13:47:48;7.15;;;1.70;;
43857;SDS011;29507;51.284;5.758;2023-02-03T13:50:21;7.20;;;2.45;;
43857;SDS011;29507;51.284;5.758;2023-02-03T13:53:01;7.88;;;1.50;;
43857;SDS011;29507;51.284;5.758;2023-02-03T13:55:38;8.77;;;1.80;;
43857;SDS011;29507;51.284;5.758;2023-02-03T13:58:19;8.02;;;1.50;;
43857;SDS011;29507;51.284;5.758;2023-02-03T14:06:09;4.20;;;1.50;;
43857;SDS011;29507;51.284;5.758;2023-02-03T14:09:54;7.18;;;1.58;;
43857;SDS011;29507;51.284;5.758;2023-02-03T14:12:38;7.45;;;1.85;;
43857;SDS011;29507;51.284;5.758;2023-02-03T14:20:32;5.15;;;1.42;;
43857;SDS011;29507;51.284;5.758;2023-02-03T14:22:56;9.55;;;2.20;;
43857;SDS011;29507;51.284;5.758;2023-02-03T14:25:30;6.80;;;1.40;;
43857;SDS011;29507;51.284;5.758;2023-02-03T14:28:08;4.88;;;1.27;;
43857;SDS011;29507;51.284;5.758;2023-02-03T14:31:14;7.40;;;2.15;;
43857;SDS011;29507;51.284;5.758;2023-02-03T14:36:35;7.68;;;1.60;;
43857;SDS011;29507;51.284;5.758;2023-02-03T14:52:47;6.90;;;1.95;;
43857;SDS011;29507;51.284;5.758;2023-02-03T14:55:34;8.20;;;1.50;;
43857;SDS011;29507;51.284;5.758;2023-02-03T14:58:20;8.77;;;2.40;;
43857;SDS011;29507;51.284;5.758;2023-02-03T15:00:46;4.30;;;1.05;;
43857;SDS011;29507;51.284;5.758;2023-02-03T15:03:15;8.40;;;1.83;;
43857;SDS011;29507;51.284;5.758;2023-02-03T15:16:19;11.23;;;2.50;;
43857;SDS011;29507;51.284;5.758;2023-02-03T15:18:59;7.28;;;2.08;;
43857;SDS011;29507;51.284;5.758;2023-02-03T15:21:32;8.15;;;2.47;;
43857;SDS011;29507;51.284;5.758;2023-02-03T15:24:09;9.75;;;2.33;;
43857;SDS011;29507;51.284;5.758;2023-02-03T15:26:46;11.48;;;3.03;;
43857;SDS011;29507;51.284;5.758;2023-02-03T15:29:27;5.50;;;1.85;;
43857;SDS011;29507;51.284;5.758;2023-02-03T15:32:29;11.10;;;2.10;;
43857;SDS011;29507;51.284;5.758;2023-02-03T15:35:01;5.22;;;2.15;;
43857;SDS011;29507;51.284;5.758;2023-02-03T15:40:18;7.47;;;2.22;;
43857;SDS011;29507;51.284;5.758;2023-02-03T15:50:32;5.15;;;2.15;;
43857;SDS011;29507;51.284;5.758;2023-02-03T15:53:13;13.10;;;2.92;;
43857;SDS011;29507;51.284;5.758;2023-02-03T15:55:45;10.20;;;2.30;;
43857;SDS011;29507;51.284;5.758;2023-02-03T15:58:16;9.15;;;3.53;;
43857;SDS011;29507;51.284;5.758;2023-02-03T16:00:55;5.00;;;2.72;;
43857;SDS011;29507;51.284;5.758;2023-02-03T16:03:36;8.05;;;2.92;;
43857;SDS011;29507;51.284;5.758;2023-02-03T16:09:04;5.18;;;1.80;;
43857;SDS011;29507;51.284;5.758;2023-02-03T16:14:02;6.40;;;2.45;;
43857;SDS011;29507;51.284;5.758;2023-02-03T16:17:03;8.18;;;2.40;;
43857;SDS011;29507;51.284;5.758;2023-02-03T16:19:22;5.93;;;2.55;;
43857;SDS011;29507;51.284;5.758;2023-02-03T16:32:36;10.43;;;3.00;;
43857;SDS011;29507;51.284;5.758;2023-02-03T16:35:21;8.68;;;3.35;;
43857;SDS011;29507;51.284;5.758;2023-02-03T16:38:06;11.98;;;3.80;;
43857;SDS011;29507;51.284;5.758;2023-02-03T16:41:00;8.43;;;3.20;;
43857;SDS011;29507;51.284;5.758;2023-02-03T16:43:56;7.35;;;2.78;;
43857;SDS011;29507;51.284;5.758;2023-02-03T16:46:41;9.63;;;3.28;;
43857;SDS011;29507;51.284;5.758;2023-02-03T16:49:26;7.65;;;2.90;;
43857;SDS011;29507;51.284;5.758;2023-02-03T16:52:10;11.05;;;2.97;;
43857;SDS011;29507;51.284;5.758;2023-02-03T16:54:36;11.43;;;3.10;;
43857;SDS011;29507;51.284;5.758;2023-02-03T16:57:01;13.85;;;2.80;;
43857;SDS011;29507;51.284;5.758;2023-02-03T16:59:27;10.65;;;2.10;;
43857;SDS011;29507;51.284;5.758;2023-02-03T17:01:53;10.35;;;2.20;;
43857;SDS011;29507;51.284;5.758;2023-02-03T17:04:18;9.90;;;2.55;;
43857;SDS011;29507;51.284;5.758;2023-02-03T17:06:44;8.25;;;2.20;;
43857;SDS011;29507;51.284;5.758;2023-02-03T17:09:12;6.28;;;2.47;;
43857;SDS011;29507;51.284;5.758;2023-02-03T17:11:38;11.20;;;3.55;;
43857;SDS011;29507;51.284;5.758;2023-02-03T17:14:03;14.57;;;2.92;;
43857;SDS011;29507;51.284;5.758;2023-02-03T17:16:29;14.40;;;3.50;;
43857;SDS011;29507;51.284;5.758;2023-02-03T17:18:57;13.45;;;2.90;;
43857;SDS011;29507;51.284;5.758;2023-02-03T17:21:27;6.90;;;2.78;;
43857;SDS011;29507;51.284;5.758;2023-02-03T17:23:57;16.55;;;3.00;;
43857;SDS011;29507;51.284;5.758;2023-02-03T17:26:23;9.50;;;3.03;;